sensor_id;sensor_type;location;lat;lon;timestamp;pressure;altitude;pressure_sealevel;temperature;humidity
62201;BME280;48197;42.732;27.192;2023-03-18T00:02:25;100206.03;;;4.32;83.79
62201;BME280;48197;42.732;27.192;2023-03-18T00:04:52;100208.06;;;4.35;82.48
62201;BME280;48197;42.732;27.192;2023-03-18T00:07:19;100211.59;;;4.35;81.47
62201;BME280;48197;42.732;27.192;2023-03-18T00:09:46;100204.19;;;4.36;80.04
62201;BME280;48197;42.732;27.192;2023-03-18T00:12:12;100209.91;;;4.30;79.38
62201;BME280;48197;42.732;27.192;2023-03-18T00:14:39;100208.84;;;4.35;77.07
62201;BME280;48197;42.732;27.192;2023-03-18T00:17:07;100194.16;;;4.40;76.99
62201;BME280;48197;42.732;27.192;2023-03-18T00:19:34;100180.69;;;4.35;77.19
62201;BME280;48197;42.732;27.192;2023-03-18T00:22:04;100188.56;;;4.36;75.68
62201;BME280;48197;42.732;27.192;2023-03-18T00:24:31;100197.22;;;4.38;75.54
62201;BME280;48197;42.732;27.192;2023-03-18T00:26:57;100189.34;;;4.37;75.11
62201;BME280;48197;42.732;27.192;2023-03-18T00:29:24;100183.78;;;4.33;75.36
62201;BME280;48197;42.732;27.192;2023-03-18T00:31:51;100189.00;;;4.38;71.83
62201;BME280;48197;42.732;27.192;2023-03-18T00:34:17;100174.28;;;4.43;72.38
62201;BME280;48197;42.732;27.192;2023-03-18T00:36:45;100171.44;;;4.39;73.18
62201;BME280;48197;42.732;27.192;2023-03-18T00:39:16;100180.69;;;4.35;72.76
62201;BME280;48197;42.732;27.192;2023-03-18T00:41:46;100181.88;;;4.34;72.63
62201;BME280;48197;42.732;27.192;2023-03-18T00:44:13;100172.03;;;4.33;73.08
62201;BME280;48197;42.732;27.192;2023-03-18T00:46:40;100152.00;;;4.28;73.14
62201;BME280;48197;42.732;27.192;2023-03-18T00:49:07;100173.56;;;4.30;71.89
62201;BME280;48197;42.732;27.192;2023-03-18T00:51:34;100173.44;;;4.26;72.20
62201;BME280;48197;42.732;27.192;2023-03-18T00:54:03;100164.56;;;4.29;70.44
62201;BME280;48197;42.732;27.192;2023-03-18T00:56:31;100161.09;;;4.33;70.84
62201;BME280;48197;42.732;27.192;2023-03-18T00:58:58;100171.59;;;4.30;71.94
62201;BME280;48197;42.732;27.192;2023-03-18T01:01:26;100166.28;;;4.22;72.19
62201;BME280;48197;42.732;27.192;2023-03-18T01:03:52;100178.28;;;4.17;71.94
62201;BME280;48197;42.732;27.192;2023-03-18T01:06:22;100164.94;;;4.16;71.44
62201;BME280;48197;42.732;27.192;2023-03-18T01:08:49;100162.94;;;4.13;71.17
62201;BME280;48197;42.732;27.192;2023-03-18T01:11:16;100164.00;;;4.08;71.01
62201;BME280;48197;42.732;27.192;2023-03-18T01:13:44;100151.44;;;4.07;70.49
62201;BME280;48197;42.732;27.192;2023-03-18T01:16:11;100152.50;;;4.02;72.57
62201;BME280;48197;42.732;27.192;2023-03-18T01:18:39;100152.38;;;3.99;70.75
62201;BME280;48197;42.732;27.192;2023-03-18T01:21:07;100165.38;;;4.02;70.46
62201;BME280;48197;42.732;27.192;2023-03-18T01:23:34;100155.34;;;4.06;69.42
62201;BME280;48197;42.732;27.192;2023-03-18T01:26:00;100152.75;;;3.97;70.71
62201;BME280;48197;42.732;27.192;2023-03-18T01:28:28;100149.63;;;3.83;72.35
62201;BME280;48197;42.732;27.192;2023-03-18T01:30:55;100162.81;;;3.65;73.40
62201;BME280;48197;42.732;27.192;2023-03-18T01:33:23;100165.75;;;3.60;73.83
62201;BME280;48197;42.732;27.192;2023-03-18T01:35:54;100169.19;;;3.57;73.76
62201;BME280;48197;42.732;27.192;2023-03-18T01:38:21;100160.69;;;3.46;75.07
62201;BME280;48197;42.732;27.192;2023-03-18T01:40:49;100162.97;;;3.44;74.46
62201;BME280;48197;42.732;27.192;2023-03-18T01:43:24;100166.28;;;3.37;74.64
62201;BME280;48197;42.732;27.192;2023-03-18T01:45:52;100164.81;;;3.40;74.34
62201;BME280;48197;42.732;27.192;2023-03-18T01:48:21;100162.09;;;3.27;76.47
62201;BME280;48197;42.732;27.192;2023-03-18T01:50:58;100163.34;;;3.18;77.46
62201;BME280;48197;42.732;27.192;2023-03-18T01:53:30;100147.31;;;3.16;76.81
62201;BME280;48197;42.732;27.192;2023-03-18T01:56:01;100160.06;;;3.24;74.97
62201;BME280;48197;42.732;27.192;2023-03-18T01:58:30;100157.88;;;3.18;75.59
62201;BME280;48197;42.732;27.192;2023-03-18T02:01:03;100159.03;;;3.04;77.34
62201;BME280;48197;42.732;27.192;2023-03-18T02:03:31;100158.69;;;3.06;76.20
62201;BME280;48197;42.732;27.192;2023-03-18T02:05:59;100159.16;;;3.08;75.88
62201;BME280;48197;42.732;27.192;2023-03-18T02:08:26;100144.47;;;3.13;75.11
62201;BME280;48197;42.732;27.192;2023-03-18T02:10:54;100151.63;;;3.17;74.34
62201;BME280;48197;42.732;27.192;2023-03-18T02:13:21;100135.69;;;3.07;75.72
62201;BME280;48197;42.732;27.192;2023-03-18T02:15:51;100147.56;;;2.99;75.77
62201;BME280;48197;42.732;27.192;2023-03-18T02:18:22;100157.47;;;3.03;74.66
62201;BME280;48197;42.732;27.192;2023-03-18T02:26:26;100152.00;;;2.91;74.45
62201;BME280;48197;42.732;27.192;2023-03-18T02:28:55;100171.09;;;2.91;73.60
62201;BME280;48197;42.732;27.192;2023-03-18T02:31:24;100159.38;;;3.03;71.98
62201;BME280;48197;42.732;27.192;2023-03-18T02:33:52;100158.50;;;2.99;73.38
62201;BME280;48197;42.732;27.192;2023-03-18T02:36:22;100163.63;;;2.88;72.30
62201;BME280;48197;42.732;27.192;2023-03-18T02:38:50;100157.59;;;2.95;72.44
62201;BME280;48197;42.732;27.192;2023-03-18T02:41:18;100171.69;;;2.84;72.76
62201;BME280;48197;42.732;27.192;2023-03-18T02:43:46;100167.00;;;2.85;72.38
62201;BME280;48197;42.732;27.192;2023-03-18T02:48:58;100158.59;;;2.90;71.89
62201;BME280;48197;42.732;27.192;2023-03-18T02:51:26;100162.13;;;2.91;71.53
62201;BME280;48197;42.732;27.192;2023-03-18T02:53:54;100159.28;;;2.87;71.80
62201;BME280;48197;42.732;27.192;2023-03-18T02:56:22;100158.03;;;2.84;70.56
62201;BME280;48197;42.732;27.192;2023-03-18T02:58:50;100165.19;;;2.77;71.45
62201;BME280;48197;42.732;27.192;2023-03-18T03:01:17;100161.34;;;2.78;70.66
62201;BME280;48197;42.732;27.192;2023-03-18T03:03:45;100162.81;;;2.75;70.77
62201;BME280;48197;42.732;27.192;2023-03-18T03:06:12;100170.78;;;2.80;70.92
62201;BME280;48197;42.732;27.192;2023-03-18T03:08:38;100187.16;;;2.80;70.92
62201;BME280;48197;42.732;27.192;2023-03-18T03:11:05;100169.06;;;2.76;72.52
62201;BME280;48197;42.732;27.192;2023-03-18T03:13:33;100172.69;;;2.68;73.83
62201;BME280;48197;42.732;27.192;2023-03-18T03:16:00;100178.13;;;2.55;74.12
62201;BME280;48197;42.732;27.192;2023-03-18T03:18:27;100177.31;;;2.42;75.59
62201;BME280;48197;42.732;27.192;2023-03-18T03:20:55;100193.47;;;2.35;76.70
62201;BME280;48197;42.732;27.192;2023-03-18T03:23:21;100189.13;;;2.34;76.59
62201;BME280;48197;42.732;27.192;2023-03-18T03:25:48;100190.94;;;2.30;76.97
62201;BME280;48197;42.732;27.192;2023-03-18T03:28:16;100189.53;;;2.24;77.19
62201;BME280;48197;42.732;27.192;2023-03-18T03:30:42;100177.38;;;2.21;77.30
62201;BME280;48197;42.732;27.192;2023-03-18T03:33:09;100172.47;;;2.15;77.79
62201;BME280;48197;42.732;27.192;2023-03-18T03:35:36;100173.97;;;2.12;76.61
62201;BME280;48197;42.732;27.192;2023-03-18T03:38:03;100175.22;;;2.15;76.97
62201;BME280;48197;42.732;27.192;2023-03-18T03:40:30;100177.16;;;2.14;76.82
62201;BME280;48197;42.732;27.192;2023-03-18T03:42:57;100174.88;;;2.16;74.92
62201;BME280;48197;42.732;27.192;2023-03-18T03:45:24;100185.25;;;2.23;73.84
62201;BME280;48197;42.732;27.192;2023-03-18T03:47:51;100174.31;;;2.23;73.75
62201;BME280;48197;42.732;27.192;2023-03-18T03:50:18;100177.28;;;2.30;73.35
62201;BME280;48197;42.732;27.192;2023-03-18T03:52:44;100178.75;;;2.28;73.38
62201;BME280;48197;42.732;27.192;2023-03-18T03:55:13;100191.03;;;2.21;73.33
62201;BME280;48197;42.732;27.192;2023-03-18T03:57:41;100182.38;;;2.19;72.58
62201;BME280;48197;42.732;27.192;2023-03-18T04:00:09;100189.69;;;2.28;71.83
62201;BME280;48197;42.732;27.192;2023-03-18T04:02:40;100180.38;;;2.29;70.35
62201;BME280;48197;42.732;27.192;2023-03-18T04:05:08;100180.38;;;2.41;69.52
62201;BME280;48197;42.732;27.192;2023-03-18T04:07:36;100175.16;;;2.36;69.29
62201;BME280;48197;42.732;27.192;2023-03-18T04:10:03;100188.69;;;2.44;67.14
62201;BME280;48197;42.732;27.192;2023-03-18T04:12:31;100183.00;;;2.50;66.92
62201;BME280;48197;42.732;27.192;2023-03-18T04:14:57;100180.66;;;2.60;66.57
62201;BME280;48197;42.732;27.192;2023-03-18T04:17:24;100190.53;;;2.53;67.47
62201;BME280;48197;42.732;27.192;2023-03-18T04:19:50;100185.19;;;2.44;67.90
62201;BME280;48197;42.732;27.192;2023-03-18T04:22:17;100189.13;;;2.34;68.99
62201;BME280;48197;42.732;27.192;2023-03-18T04:24:43;100183.88;;;2.29;68.87
62201;BME280;48197;42.732;27.192;2023-03-18T04:27:10;100183.09;;;2.29;67.92
62201;BME280;48197;42.732;27.192;2023-03-18T04:29:35;100180.94;;;2.34;68.10
62201;BME280;48197;42.732;27.192;2023-03-18T04:32:02;100185.13;;;2.32;67.34
62201;BME280;48197;42.732;27.192;2023-03-18T04:34:29;100182.41;;;2.32;67.92
62201;BME280;48197;42.732;27.192;2023-03-18T04:36:55;100193.75;;;2.21;69.21
62201;BME280;48197;42.732;27.192;2023-03-18T04:39:23;100186.28;;;2.31;68.83
62201;BME280;48197;42.732;27.192;2023-03-18T04:41:49;100180.00;;;2.30;68.88
62201;BME280;48197;42.732;27.192;2023-03-18T04:44:16;100196.75;;;2.29;69.24
62201;BME280;48197;42.732;27.192;2023-03-18T04:46:43;100190.94;;;2.30;68.96
62201;BME280;48197;42.732;27.192;2023-03-18T04:49:09;100191.97;;;2.38;67.66
62201;BME280;48197;42.732;27.192;2023-03-18T04:51:36;100202.47;;;2.48;66.39
62201;BME280;48197;42.732;27.192;2023-03-18T04:54:03;100203.38;;;2.52;66.41
62201;BME280;48197;42.732;27.192;2023-03-18T04:56:29;100199.19;;;2.67;64.94
62201;BME280;48197;42.732;27.192;2023-03-18T04:58:56;100208.66;;;2.94;64.65
62201;BME280;48197;42.732;27.192;2023-03-18T05:01:23;100208.78;;;3.10;62.56
62201;BME280;48197;42.732;27.192;2023-03-18T05:03:49;100209.78;;;3.18;62.16
62201;BME280;48197;42.732;27.192;2023-03-18T05:06:24;100207.28;;;3.25;61.18
62201;BME280;48197;42.732;27.192;2023-03-18T05:08:51;100207.94;;;3.22;60.86
62201;BME280;48197;42.732;27.192;2023-03-18T05:11:19;100214.31;;;3.38;60.18
62201;BME280;48197;42.732;27.192;2023-03-18T05:13:46;100211.00;;;3.57;59.13
62201;BME280;48197;42.732;27.192;2023-03-18T05:16:12;100209.34;;;3.68;57.60
62201;BME280;48197;42.732;27.192;2023-03-18T05:18:39;100214.53;;;3.86;58.86
62201;BME280;48197;42.732;27.192;2023-03-18T05:21:06;100212.00;;;4.05;56.70
62201;BME280;48197;42.732;27.192;2023-03-18T05:23:34;100211.63;;;4.07;57.79
62201;BME280;48197;42.732;27.192;2023-03-18T05:26:01;100214.34;;;4.07;58.24
62201;BME280;48197;42.732;27.192;2023-03-18T05:28:28;100211.03;;;4.14;57.61
62201;BME280;48197;42.732;27.192;2023-03-18T05:30:54;100216.44;;;4.26;57.30
62201;BME280;48197;42.732;27.192;2023-03-18T05:33:21;100210.31;;;4.45;55.60
62201;BME280;48197;42.732;27.192;2023-03-18T05:35:47;100203.97;;;4.73;55.00
62201;BME280;48197;42.732;27.192;2023-03-18T05:38:14;100209.16;;;5.09;53.46
62201;BME280;48197;42.732;27.192;2023-03-18T05:40:41;100190.69;;;5.42;52.23
62201;BME280;48197;42.732;27.192;2023-03-18T05:43:07;100191.97;;;5.64;50.64
62201;BME280;48197;42.732;27.192;2023-03-18T05:45:34;100192.78;;;5.84;49.83
62201;BME280;48197;42.732;27.192;2023-03-18T05:48:00;100196.75;;;6.06;49.34
62201;BME280;48197;42.732;27.192;2023-03-18T05:50:36;100197.63;;;6.29;48.10
62201;BME280;48197;42.732;27.192;2023-03-18T05:53:03;100187.47;;;6.33;46.87
62201;BME280;48197;42.732;27.192;2023-03-18T05:55:31;100205.28;;;6.20;45.78
62201;BME280;48197;42.732;27.192;2023-03-18T05:57:58;100196.31;;;6.04;47.03
62201;BME280;48197;42.732;27.192;2023-03-18T06:00:25;100200.78;;;5.92;47.11
62201;BME280;48197;42.732;27.192;2023-03-18T06:02:53;100216.78;;;6.06;47.06
62201;BME280;48197;42.732;27.192;2023-03-18T06:05:20;100210.72;;;6.17;48.11
62201;BME280;48197;42.732;27.192;2023-03-18T06:07:47;100207.75;;;6.25;47.60
62201;BME280;48197;42.732;27.192;2023-03-18T06:10:14;100209.59;;;6.41;47.58
62201;BME280;48197;42.732;27.192;2023-03-18T06:12:41;100228.16;;;6.47;47.23
62201;BME280;48197;42.732;27.192;2023-03-18T06:15:09;100218.09;;;6.36;47.54
62201;BME280;48197;42.732;27.192;2023-03-18T06:17:38;100206.66;;;6.30;48.64
62201;BME280;48197;42.732;27.192;2023-03-18T06:20:05;100209.47;;;6.14;48.92
62201;BME280;48197;42.732;27.192;2023-03-18T06:22:33;100211.63;;;6.24;49.79
62201;BME280;48197;42.732;27.192;2023-03-18T06:25:00;100216.94;;;6.56;49.56
62201;BME280;48197;42.732;27.192;2023-03-18T06:27:28;100222.97;;;6.88;48.67
62201;BME280;48197;42.732;27.192;2023-03-18T06:29:55;100227.25;;;6.86;49.50
62201;BME280;48197;42.732;27.192;2023-03-18T06:32:21;100229.88;;;6.79;47.38
62201;BME280;48197;42.732;27.192;2023-03-18T06:34:47;100216.44;;;6.73;49.03
62201;BME280;48197;42.732;27.192;2023-03-18T06:37:15;100237.56;;;6.69;49.44
62201;BME280;48197;42.732;27.192;2023-03-18T06:39:42;100236.41;;;6.70;49.56
62201;BME280;48197;42.732;27.192;2023-03-18T06:42:08;100230.50;;;6.68;48.33
62201;BME280;48197;42.732;27.192;2023-03-18T06:44:35;100226.16;;;6.90;49.01
62201;BME280;48197;42.732;27.192;2023-03-18T06:47:01;100230.91;;;7.43;47.78
62201;BME280;48197;42.732;27.192;2023-03-18T06:49:29;100229.00;;;7.47;46.84
62201;BME280;48197;42.732;27.192;2023-03-18T06:51:59;100231.84;;;7.54;48.06
62201;BME280;48197;42.732;27.192;2023-03-18T06:54:27;100217.25;;;7.50;46.64
62201;BME280;48197;42.732;27.192;2023-03-18T06:56:55;100224.47;;;7.32;46.52
62201;BME280;48197;42.732;27.192;2023-03-18T06:59:21;100228.03;;;7.09;47.80
62201;BME280;48197;42.732;27.192;2023-03-18T07:01:47;100222.34;;;6.99;48.48
62201;BME280;48197;42.732;27.192;2023-03-18T07:04:14;100220.03;;;7.27;48.68
62201;BME280;48197;42.732;27.192;2023-03-18T07:06:40;100222.63;;;7.70;47.98
62201;BME280;48197;42.732;27.192;2023-03-18T07:09:07;100221.50;;;8.38;46.72
62201;BME280;48197;42.732;27.192;2023-03-18T07:11:36;100214.41;;;8.78;45.70
62201;BME280;48197;42.732;27.192;2023-03-18T07:14:02;100221.94;;;8.82;44.84
62201;BME280;48197;42.732;27.192;2023-03-18T07:19:25;100218.72;;;9.24;43.76
62201;BME280;48197;42.732;27.192;2023-03-18T07:21:51;100211.22;;;8.73;43.97
62201;BME280;48197;42.732;27.192;2023-03-18T07:24:17;100204.44;;;8.63;43.75
62201;BME280;48197;42.732;27.192;2023-03-18T07:26:46;100205.44;;;8.44;43.39
62201;BME280;48197;42.732;27.192;2023-03-18T07:29:15;100217.09;;;8.34;44.67
62201;BME280;48197;42.732;27.192;2023-03-18T07:31:41;100215.53;;;8.33;44.43
62201;BME280;48197;42.732;27.192;2023-03-18T07:34:08;100195.66;;;8.16;44.11
62201;BME280;48197;42.732;27.192;2023-03-18T07:36:35;100201.63;;;8.22;44.13
62201;BME280;48197;42.732;27.192;2023-03-18T07:39:05;100206.06;;;8.34;44.38
62201;BME280;48197;42.732;27.192;2023-03-18T07:41:32;100215.56;;;8.36;43.62
62201;BME280;48197;42.732;27.192;2023-03-18T07:43:58;100198.03;;;8.52;44.95
62201;BME280;48197;42.732;27.192;2023-03-18T07:46:25;100205.56;;;8.58;43.41
62201;BME280;48197;42.732;27.192;2023-03-18T07:48:54;100206.47;;;8.70;43.54
62201;BME280;48197;42.732;27.192;2023-03-18T08:00:29;100213.59;;;9.23;42.63
62201;BME280;48197;42.732;27.192;2023-03-18T08:02:56;100212.81;;;9.26;43.80
62201;BME280;48197;42.732;27.192;2023-03-18T08:05:23;100219.78;;;9.68;41.24
62201;BME280;48197;42.732;27.192;2023-03-18T08:07:50;100223.91;;;9.36;41.90
62201;BME280;48197;42.732;27.192;2023-03-18T08:10:17;100218.56;;;9.61;40.80
62201;BME280;48197;42.732;27.192;2023-03-18T08:12:45;100235.59;;;9.71;42.04
62201;BME280;48197;42.732;27.192;2023-03-18T08:15:11;100206.16;;;9.34;41.63
62201;BME280;48197;42.732;27.192;2023-03-18T08:17:37;100235.19;;;9.13;42.29
62201;BME280;48197;42.732;27.192;2023-03-18T08:20:04;100216.28;;;9.12;41.94
62201;BME280;48197;42.732;27.192;2023-03-18T08:22:31;100206.47;;;9.22;42.39
62201;BME280;48197;42.732;27.192;2023-03-18T08:24:58;100217.44;;;9.77;42.29
62201;BME280;48197;42.732;27.192;2023-03-18T08:27:24;100211.56;;;9.86;41.39
62201;BME280;48197;42.732;27.192;2023-03-18T08:29:50;100231.19;;;9.66;42.77
62201;BME280;48197;42.732;27.192;2023-03-18T08:32:17;100228.03;;;9.64;42.38
62201;BME280;48197;42.732;27.192;2023-03-18T08:34:44;100227.78;;;9.25;44.15
62201;BME280;48197;42.732;27.192;2023-03-18T08:37:10;100211.47;;;9.64;43.51
62201;BME280;48197;42.732;27.192;2023-03-18T08:39:39;100224.47;;;9.56;42.55
62201;BME280;48197;42.732;27.192;2023-03-18T08:42:09;100220.16;;;9.66;44.08
62201;BME280;48197;42.732;27.192;2023-03-18T08:44:36;100222.72;;;10.11;42.24
62201;BME280;48197;42.732;27.192;2023-03-18T08:47:02;100223.88;;;10.02;41.69
62201;BME280;48197;42.732;27.192;2023-03-18T08:49:28;100218.03;;;10.18;41.85
62201;BME280;48197;42.732;27.192;2023-03-18T08:51:54;100244.88;;;10.25;42.08
62201;BME280;48197;42.732;27.192;2023-03-18T08:54:21;100235.38;;;10.19;41.07
62201;BME280;48197;42.732;27.192;2023-03-18T08:56:47;100225.09;;;10.12;42.39
62201;BME280;48197;42.732;27.192;2023-03-18T08:59:14;100227.19;;;10.40;41.39
62201;BME280;48197;42.732;27.192;2023-03-18T09:01:40;100227.34;;;9.85;42.94
62201;BME280;48197;42.732;27.192;2023-03-18T09:04:13;100239.59;;;9.84;41.89
62201;BME280;48197;42.732;27.192;2023-03-18T09:06:40;100236.72;;;9.63;42.13
62201;BME280;48197;42.732;27.192;2023-03-18T09:09:07;100236.97;;;9.39;42.00
62201;BME280;48197;42.732;27.192;2023-03-18T09:11:33;100244.75;;;9.27;43.94
62201;BME280;48197;42.732;27.192;2023-03-18T09:14:01;100249.53;;;9.33;43.20
62201;BME280;48197;42.732;27.192;2023-03-18T09:16:28;100249.59;;;9.44;43.34
62201;BME280;48197;42.732;27.192;2023-03-18T09:18:54;100243.75;;;9.53;43.80
62201;BME280;48197;42.732;27.192;2023-03-18T09:21:21;100229.31;;;9.77;43.70
62201;BME280;48197;42.732;27.192;2023-03-18T09:23:48;100226.91;;;9.69;42.81
62201;BME280;48197;42.732;27.192;2023-03-18T09:26:16;100232.72;;;9.56;44.18
62201;BME280;48197;42.732;27.192;2023-03-18T09:28:44;100219.03;;;9.74;44.50
62201;BME280;48197;42.732;27.192;2023-03-18T09:31:11;100249.41;;;9.78;42.23
62201;BME280;48197;42.732;27.192;2023-03-18T09:33:37;100227.97;;;9.53;41.66
62201;BME280;48197;42.732;27.192;2023-03-18T09:36:07;100215.66;;;9.40;42.63
62201;BME280;48197;42.732;27.192;2023-03-18T09:38:34;100216.47;;;9.40;43.21
62201;BME280;48197;42.732;27.192;2023-03-18T10:09:28;100216.84;;;10.16;39.62
62201;BME280;48197;42.732;27.192;2023-03-18T10:12:38;100210.09;;;10.13;41.54
62201;BME280;48197;42.732;27.192;2023-03-18T10:15:03;100204.75;;;10.63;41.42
62201;BME280;48197;42.732;27.192;2023-03-18T10:19:59;100201.84;;;10.24;38.00
62201;BME280;48197;42.732;27.192;2023-03-18T10:25:17;100203.88;;;10.34;40.56
62201;BME280;48197;42.732;27.192;2023-03-18T10:33:40;100171.94;;;11.19;37.25
62201;BME280;48197;42.732;27.192;2023-03-18T10:38:21;100182.59;;;10.38;39.89
62201;BME280;48197;42.732;27.192;2023-03-18T10:40:49;100198.38;;;10.31;39.08
62201;BME280;48197;42.732;27.192;2023-03-18T10:43:19;100170.28;;;10.18;38.90
62201;BME280;48197;42.732;27.192;2023-03-18T10:45:47;100169.53;;;10.32;38.26
62201;BME280;48197;42.732;27.192;2023-03-18T10:48:17;100156.94;;;10.59;38.87
62201;BME280;48197;42.732;27.192;2023-03-18T10:53:33;100162.47;;;11.02;39.20
62201;BME280;48197;42.732;27.192;2023-03-18T10:58:30;100156.63;;;12.10;37.24
62201;BME280;48197;42.732;27.192;2023-03-18T11:00:57;100135.84;;;12.40;36.65
62201;BME280;48197;42.732;27.192;2023-03-18T11:03:25;100150.81;;;12.50;35.57
62201;BME280;48197;42.732;27.192;2023-03-18T11:05:53;100167.66;;;12.17;35.87
62201;BME280;48197;42.732;27.192;2023-03-18T11:08:28;100139.69;;;11.90;37.34
62201;BME280;48197;42.732;27.192;2023-03-18T11:10:57;100144.09;;;11.80;37.62
62201;BME280;48197;42.732;27.192;2023-03-18T11:13:31;100135.13;;;11.40;38.28
62201;BME280;48197;42.732;27.192;2023-03-18T11:15:58;100132.47;;;10.76;38.01
62201;BME280;48197;42.732;27.192;2023-03-18T11:18:25;100131.69;;;10.57;37.74
62201;BME280;48197;42.732;27.192;2023-03-18T11:20:58;100130.09;;;10.49;39.34
62201;BME280;48197;42.732;27.192;2023-03-18T11:23:36;100129.31;;;10.52;39.08
62201;BME280;48197;42.732;27.192;2023-03-18T11:26:20;100124.16;;;10.69;39.32
62201;BME280;48197;42.732;27.192;2023-03-18T11:28:46;100137.53;;;11.28;39.12
62201;BME280;48197;42.732;27.192;2023-03-18T11:31:17;100125.91;;;11.76;39.88
62201;BME280;48197;42.732;27.192;2023-03-18T11:33:43;100127.38;;;11.98;38.83
62201;BME280;48197;42.732;27.192;2023-03-18T11:36:16;100128.63;;;11.87;38.58
62201;BME280;48197;42.732;27.192;2023-03-18T11:38:54;100129.00;;;11.96;39.15
62201;BME280;48197;42.732;27.192;2023-03-18T11:41:25;100131.81;;;11.81;38.13
62201;BME280;48197;42.732;27.192;2023-03-18T11:44:02;100125.97;;;11.65;37.24
62201;BME280;48197;42.732;27.192;2023-03-18T11:49:22;100128.38;;;11.49;39.53
62201;BME280;48197;42.732;27.192;2023-03-18T12:05:20;100120.75;;;11.74;38.17
62201;BME280;48197;42.732;27.192;2023-03-18T12:15:42;100123.72;;;11.17;38.07
62201;BME280;48197;42.732;27.192;2023-03-18T12:18:19;100118.97;;;11.21;38.74
62201;BME280;48197;42.732;27.192;2023-03-18T12:20:49;100122.13;;;11.16;38.39
62201;BME280;48197;42.732;27.192;2023-03-18T12:23:27;100126.94;;;10.87;38.84
62201;BME280;48197;42.732;27.192;2023-03-18T12:31:14;100118.22;;;11.02;39.81
62201;BME280;48197;42.732;27.192;2023-03-18T12:33:52;100117.38;;;11.23;40.16
62201;BME280;48197;42.732;27.192;2023-03-18T12:36:34;100108.19;;;11.52;39.41
62201;BME280;48197;42.732;27.192;2023-03-18T12:39:20;100112.56;;;11.53;38.96
62201;BME280;48197;42.732;27.192;2023-03-18T12:41:54;100082.06;;;11.56;39.26
62201;BME280;48197;42.732;27.192;2023-03-18T12:46:58;100100.06;;;10.98;40.38
62201;BME280;48197;42.732;27.192;2023-03-18T12:49:31;100096.53;;;10.76;39.95
62201;BME280;48197;42.732;27.192;2023-03-18T12:54:28;100091.41;;;10.60;40.24
62201;BME280;48197;42.732;27.192;2023-03-18T12:57:06;100093.00;;;10.50;40.25
62201;BME280;48197;42.732;27.192;2023-03-18T13:04:32;100087.81;;;10.20;41.45
62201;BME280;48197;42.732;27.192;2023-03-18T13:07:06;100108.69;;;10.07;42.56
62201;BME280;48197;42.732;27.192;2023-03-18T13:09:53;100111.03;;;9.97;43.07
62201;BME280;48197;42.732;27.192;2023-03-18T13:12:36;100100.78;;;9.84;44.19
62201;BME280;48197;42.732;27.192;2023-03-18T13:17:50;100108.19;;;9.65;44.71
62201;BME280;48197;42.732;27.192;2023-03-18T13:20:21;100117.63;;;9.64;44.90
62201;BME280;48197;42.732;27.192;2023-03-18T13:23:04;100113.28;;;9.56;45.72
62201;BME280;48197;42.732;27.192;2023-03-18T13:30:59;100108.94;;;9.62;46.06
62201;BME280;48197;42.732;27.192;2023-03-18T13:43:43;100095.97;;;9.66;47.98
62201;BME280;48197;42.732;27.192;2023-03-18T13:46:18;100106.22;;;9.69;47.51
62201;BME280;48197;42.732;27.192;2023-03-18T13:48:45;100110.16;;;9.65;47.83
62201;BME280;48197;42.732;27.192;2023-03-18T13:51:41;100093.56;;;9.57;47.85
62201;BME280;48197;42.732;27.192;2023-03-18T13:54:12;100104.59;;;9.50;48.93
62201;BME280;48197;42.732;27.192;2023-03-18T13:59:41;100103.00;;;9.53;49.98
62201;BME280;48197;42.732;27.192;2023-03-18T14:04:49;100105.81;;;8.87;52.93
62201;BME280;48197;42.732;27.192;2023-03-18T14:07:19;100101.00;;;8.73;53.17
62201;BME280;48197;42.732;27.192;2023-03-18T14:12:21;100113.72;;;8.03;57.90
62201;BME280;48197;42.732;27.192;2023-03-18T14:14:52;100112.78;;;7.91;61.47
62201;BME280;48197;42.732;27.192;2023-03-18T14:17:22;100104.31;;;7.70;64.12
62201;BME280;48197;42.732;27.192;2023-03-18T14:19:54;100118.88;;;7.40;68.10
62201;BME280;48197;42.732;27.192;2023-03-18T14:22:25;100103.06;;;7.03;73.28
62201;BME280;48197;42.732;27.192;2023-03-18T14:28:14;100104.13;;;6.68;77.54
62201;BME280;48197;42.732;27.192;2023-03-18T14:33:03;100110.91;;;6.74;76.67
62201;BME280;48197;42.732;27.192;2023-03-18T14:35:37;100112.34;;;6.91;77.37
62201;BME280;48197;42.732;27.192;2023-03-18T14:38:19;100115.81;;;7.15;73.49
62201;BME280;48197;42.732;27.192;2023-03-18T14:40:48;100113.19;;;7.56;69.36
62201;BME280;48197;42.732;27.192;2023-03-18T14:43:21;100115.59;;;7.95;68.94
62201;BME280;48197;42.732;27.192;2023-03-18T14:45:49;100121.00;;;8.25;66.63
62201;BME280;48197;42.732;27.192;2023-03-18T14:48:20;100110.13;;;8.39;65.30
62201;BME280;48197;42.732;27.192;2023-03-18T14:50:49;100116.91;;;8.46;64.01
62201;BME280;48197;42.732;27.192;2023-03-18T14:56:04;100119.34;;;8.54;64.92
62201;BME280;48197;42.732;27.192;2023-03-18T14:58:32;100130.19;;;8.40;65.77
62201;BME280;48197;42.732;27.192;2023-03-18T15:01:13;100119.91;;;8.33;66.22
62201;BME280;48197;42.732;27.192;2023-03-18T15:03:43;100133.63;;;8.26;66.51
62201;BME280;48197;42.732;27.192;2023-03-18T15:06:15;100131.19;;;8.21;68.60
62201;BME280;48197;42.732;27.192;2023-03-18T15:08:54;100149.94;;;8.08;68.67
62201;BME280;48197;42.732;27.192;2023-03-18T15:11:21;100147.16;;;8.05;70.50
62201;BME280;48197;42.732;27.192;2023-03-18T15:13:52;100150.59;;;7.94;72.55
62201;BME280;48197;42.732;27.192;2023-03-18T15:16:19;100158.06;;;7.94;73.18
62201;BME280;48197;42.732;27.192;2023-03-18T15:18:51;100161.59;;;7.94;73.42